To NAV CANADA Home Page Login to a new session Search on AWWS site Feedback and Comments Disclaimer Vers la page française équivalente Tips FAQ What's new on the site To the Forecasts and Observations / NOTAM section To "File a Flight Plan" website Publications and other links Update of the User's profile FIC Telephone Numbers My Weather Data Folder Route Weather Data Regional Weather Data Local Weather Data To the Forecasts and Observations / NOTAM section
Request Generated 04/25/2015 at 21:42:55 UTC . Weather information available at that time is displayed.

METAR/TAF

UMIUJAQ/QC    

METAR CYMU 252100Z 08012KT 15SM BKN260 09/03 A3003 RMK CS5 LAST OBS/ NEXT 261200Z SLP175=
METAR CYMU 252000Z 07005KT 15SM BKN260 08/03 A3004 RMK CS5 SLP177=
METAR CYMU 251900Z 07010KT 15SM FEW090 BKN260 08/03 A3003 RMK AC1CS4 SLP175=

CYMU - No TAF is issued for this station

Your time UTC time
Weather data provided by Environment Canada and NAV CANADA